Besiktas Bosphorus — TCOG3 — position and weather

sailwx.info

Track history (hours):
 
Tides and Currents Weather Stations Pressure Air Temp Water Temp Dewpoint Dewpoint Depression Visibility Wind Speed Wind Dir Waves Ship Positions

Besiktas Bosphorus

Last reported at 2015-Mar-04 16:32 UTC. Time now 2015-Mar-04 16:48 UTC.
Position N 44°38' E 037°26'.

Length 274 m; draft 8.9 m.

Type: Tanker. MMSI: 271000817.

Date/timePositionNaut miles runAvg speedWind from/ knotsBaromVisibWave heightAir tempDewpointWater temp
2015-Mar-04 16:32N 44°38' E 037°26'2 1.7
2015-Mar-04 15:33N 44°37' E 037°24'1 1.2
2015-Mar-04 14:33N 44°37' E 037°22'2 1.2
2015-Mar-04 12:33N 44°40' E 037°23'3 3.1
2015-Mar-04 11:33N 44°37' E 037°25'9 9.5
2015-Mar-04 10:33N 44°35' E 037°39'2 2.0
2015-Mar-04 09:31N 44°37' E 037°40'0 0.0
2015-Mar-04 08:28N 44°37' E 037°40'0 0.0
2015-Mar-04 07:31N 44°37' E 037°40'0 0.0
2015-Mar-04 06:31N 44°37' E 037°40'0 0.0
2015-Mar-04 05:31N 44°37' E 037°40'0 0.0
2015-Mar-03 22:18N 44°37' E 037°40'1 1.2
2015-Mar-03 21:34N 44°37' E 037°41'2 2.3
2015-Mar-03 20:33N 44°35' E 037°39'5 5.4
2015-Mar-03 19:33N 44°33' E 037°46'6 5.8
2015-Mar-03 18:33N 44°35' E 037°54'0 0.0
2015-Mar-03 17:33N 44°35' E 037°54'0 0.1
2015-Mar-03 16:30N 44°35' E 037°54'0 0.0
2015-Mar-03 15:30N 44°35' E 037°54'0 0.0
2015-Mar-03 14:33N 44°35' E 037°54'0 0.0
2015-Mar-03 13:33N 44°35' E 037°55'0 0.0
2015-Mar-03 12:33N 44°35' E 037°55'0 0.0
2015-Mar-03 11:33N 44°35' E 037°55'0 0.0
2015-Mar-03 10:33N 44°35' E 037°54'0 0.0
2015-Mar-03 09:30N 44°35' E 037°54'0 0.0
2015-Mar-03 08:33N 44°35' E 037°54'0 0.1
2015-Mar-03 07:33N 44°35' E 037°54'0 0.0
2015-Mar-03 06:33N 44°35' E 037°54'0 0.0
2015-Mar-03 05:33N 44°35' E 037°54'0 0.0
2015-Mar-03 04:33N 44°35' E 037°54'0 0.1
2015-Mar-03 03:33N 44°35' E 037°54'0 0.1
2015-Mar-03 02:33N 44°35' E 037°54'0 0.1
2015-Mar-03 01:33N 44°35' E 037°54'0 0.0
2015-Mar-03 00:33N 44°35' E 037°54'0 0.1
2015-Mar-02 23:33N 44°35' E 037°54'0 0.0
2015-Mar-02 22:33N 44°35' E 037°54'0 0.1
2015-Mar-02 21:33N 44°35' E 037°54'0 0.1
2015-Mar-02 20:33N 44°35' E 037°54'0 0.1
2015-Mar-02 19:33N 44°35' E 037°54'0 0.0
2015-Mar-02 18:33N 44°35' E 037°54'0 0.1
2015-Mar-02 17:33N 44°35' E 037°55'0 0.0
2015-Mar-02 16:33N 44°35' E 037°55'0 0.0
2015-Mar-02 15:33N 44°35' E 037°55'0 0.0
2015-Mar-02 14:33N 44°35' E 037°55'0 0.0
2015-Mar-02 13:33N 44°35' E 037°55'0 0.0
2015-Mar-02 12:33N 44°35' E 037°55'0 0.2
2015-Mar-02 11:33N 44°34' E 037°55'0 0.1
2015-Mar-02 10:33N 44°34' E 037°54'0 0.1
2015-Mar-02 09:33N 44°34' E 037°54'0 0.0
2015-Mar-02 08:33N 44°34' E 037°54'0 0.1
2015-Mar-02 07:33N 44°34' E 037°54'0 0.1
2015-Mar-02 06:33N 44°34' E 037°55'0 0.0
2015-Mar-02 05:33N 44°34' E 037°55'0 0.0
2015-Mar-02 04:33N 44°34' E 037°55'0 0.0
2015-Mar-02 03:33N 44°34' E 037°55'0 0.0
2015-Mar-02 02:33N 44°34' E 037°55'0 0.0
2015-Mar-02 01:33N 44°34' E 037°55'0 0.1
2015-Mar-02 00:33N 44°34' E 037°55'0 0.0
2015-Mar-01 23:33N 44°34' E 037°55'0 0.0
2015-Mar-01 22:33N 44°35' E 037°55'0 0.0
2015-Mar-01 21:33N 44°35' E 037°55'0 0.1
2015-Mar-01 20:33N 44°34' E 037°55'0 0.0
2015-Mar-01 19:33N 44°34' E 037°55'0 0.1
2015-Mar-01 18:33N 44°34' E 037°55'0 0.0
2015-Mar-01 17:33N 44°34' E 037°54'0 0.0
2015-Mar-01 16:33N 44°34' E 037°54'0 0.1
2015-Mar-01 15:33N 44°34' E 037°55'0 0.0
2015-Mar-01 14:33N 44°34' E 037°55'0 0.0
2015-Mar-01 13:33N 44°34' E 037°55'0 0.2
2015-Mar-01 12:33N 44°34' E 037°54'0 0.2
2015-Mar-01 11:33N 44°35' E 037°54'0 0.1
2015-Mar-01 10:33N 44°35' E 037°54'0 0.0
2015-Mar-01 09:33N 44°35' E 037°54'0 0.0
2015-Mar-01 08:33N 44°35' E 037°54'0 0.0
2015-Mar-01 07:30N 44°35' E 037°54'0 0.0
2015-Mar-01 06:33N 44°35' E 037°54'0 0.0
2015-Mar-01 05:33N 44°35' E 037°54'0 0.1
2015-Mar-01 04:27N 44°35' E 037°54'0 0.0
2015-Mar-01 03:33N 44°35' E 037°55'0 0.1
2015-Mar-01 02:33N 44°35' E 037°54'0 0.0
2015-Mar-01 01:33N 44°35' E 037°54'0 0.0
2015-Mar-01 00:33N 44°35' E 037°54'0 0.0
2015-Feb-28 23:33N 44°35' E 037°54'0 0.1
2015-Feb-28 22:33N 44°35' E 037°55'0 0.1
2015-Feb-28 21:33N 44°35' E 037°54'0 0.0
2015-Feb-28 20:33N 44°35' E 037°54'0 0.1
2015-Feb-28 19:33N 44°35' E 037°54'0 0.0
2015-Feb-28 18:33N 44°35' E 037°54'0 0.1
2015-Feb-28 17:33N 44°35' E 037°54'0 0.0
2015-Feb-28 16:33N 44°35' E 037°54'0 0.0
2015-Feb-28 15:33N 44°35' E 037°54'0 0.0
2015-Feb-28 14:33N 44°35' E 037°54'0 0.0
2015-Feb-28 13:33N 44°35' E 037°54'0 0.0
2015-Feb-28 12:33N 44°35' E 037°54'0 0.0
2015-Feb-28 11:33N 44°35' E 037°54'0 0.1
2015-Feb-28 10:33N 44°35' E 037°54'0 0.0
2015-Feb-28 09:33N 44°35' E 037°54'0 0.1
2015-Feb-28 08:33N 44°35' E 037°54'0 0.0
2015-Feb-28 07:33N 44°35' E 037°54'0 0.2
2015-Feb-28 06:33N 44°34' E 037°54'0 0.1
2015-Feb-28 05:33N 44°34' E 037°54'0 0.1
2015-Feb-28 04:33N 44°34' E 037°55'0 0.0
2015-Feb-28 03:33N 44°34' E 037°55'0 0.0
2015-Feb-28 02:33N 44°34' E 037°55'0 0.0
2015-Feb-28 01:33N 44°34' E 037°55'0 0.1
2015-Feb-28 00:33N 44°34' E 037°55'0 0.0
2015-Feb-27 23:33N 44°34' E 037°55'0 0.0
2015-Feb-27 22:33N 44°34' E 037°55'0 0.2
2015-Feb-27 21:33N 44°34' E 037°54'0 0.0
2015-Feb-27 20:33N 44°34' E 037°54'0 0.1
2015-Feb-27 19:33N 44°34' E 037°54'0 0.0
2015-Feb-27 18:33N 44°34' E 037°54'0 0.1
2015-Feb-27 17:33N 44°35' E 037°54'0 0.0
2015-Feb-27 16:33N 44°35' E 037°54'0 0.1
2015-Feb-27 15:33N 44°34' E 037°54'0 0.1
2015-Feb-27 14:33N 44°34' E 037°55'0 0.0
2015-Feb-27 13:33N 44°34' E 037°55'0 0.1
2015-Feb-27 12:33N 44°35' E 037°55'0 0.0
2015-Feb-27 11:33N 44°35' E 037°55'0 0.1
2015-Feb-27 10:33N 44°34' E 037°55'0 0.0
2015-Feb-27 09:33N 44°34' E 037°55'0 0.0
2015-Feb-27 08:33N 44°34' E 037°55'0 0.0
2015-Feb-27 07:33N 44°34' E 037°55'0 0.1
2015-Feb-27 06:33N 44°34' E 037°54'0 0.2
2015-Feb-27 05:33N 44°35' E 037°54'0 0.1
2015-Feb-27 04:33N 44°35' E 037°54'0 0.2
2015-Feb-27 03:33N 44°34' E 037°54'0 0.0
2015-Feb-27 02:33N 44°34' E 037°54'0 0.2
2015-Feb-27 01:33N 44°35' E 037°54'0 0.0
2015-Feb-27 00:33N 44°35' E 037°54'0 0.0
2015-Feb-26 23:33N 44°35' E 037°54'0 0.0
2015-Feb-26 22:33N 44°35' E 037°54'0 0.0
2015-Feb-26 21:33N 44°35' E 037°54'0 0.2
2015-Feb-26 20:33N 44°35' E 037°55'0 0.1
2015-Feb-26 19:33N 44°35' E 037°55'0 0.2
2015-Feb-26 18:33N 44°35' E 037°54'0 0.0
2015-Feb-26 17:33N 44°35' E 037°54'0 0.0
2015-Feb-26 16:30N 44°35' E 037°54'0 0.0
2015-Feb-26 15:33N 44°35' E 037°54'0 0.0
2015-Feb-26 14:33N 44°35' E 037°54'0 0.0
2015-Feb-26 13:33N 44°35' E 037°54'0 0.0
2015-Feb-26 12:33N 44°35' E 037°54'0 0.0
2015-Feb-26 11:33N 44°35' E 037°54'0 0.0
2015-Feb-26 10:33N 44°35' E 037°54'0 0.0
2015-Feb-26 09:33N 44°35' E 037°54'0 0.0
2015-Feb-26 08:33N 44°35' E 037°54'0 0.0
2015-Feb-26 07:33N 44°35' E 037°54'0 0.0
2015-Feb-26 06:30N 44°35' E 037°54'0 0.1
2015-Feb-26 05:33N 44°35' E 037°54'0 0.0
2015-Feb-26 04:33N 44°35' E 037°54'0 0.0
2015-Feb-26 03:30N 44°35' E 037°54'0 0.0
2015-Feb-26 02:33N 44°35' E 037°54'0 0.0
2015-Feb-26 01:33N 44°35' E 037°54'0 0.0
2015-Feb-26 00:33N 44°35' E 037°54'0 0.0
2015-Feb-25 23:33N 44°35' E 037°54'0 0.0
2015-Feb-25 22:33N 44°35' E 037°54'0 0.0
2015-Feb-25 21:33N 44°35' E 037°54'0 0.0
2015-Feb-25 20:33N 44°35' E 037°54'0 0.1
2015-Feb-25 19:33N 44°35' E 037°54'0 0.1
2015-Feb-25 18:33N 44°35' E 037°54'0 0.1
2015-Feb-25 17:33N 44°35' E 037°54'0 0.0
2015-Feb-25 16:33N 44°35' E 037°54'0 0.0
2015-Feb-25 15:33N 44°35' E 037°54'0 0.1
2015-Feb-25 14:33N 44°35' E 037°54'0 0.0
2015-Feb-25 13:33N 44°35' E 037°54'0 0.0
2015-Feb-25 12:33N 44°35' E 037°54'0 0.0
2015-Feb-25 11:30N 44°35' E 037°54'0 0.0
2015-Feb-25 10:33N 44°35' E 037°54'0 0.0
2015-Feb-25 09:33N 44°35' E 037°54'0 0.0
2015-Feb-25 08:33N 44°35' E 037°54'0 0.0
2015-Feb-25 07:33N 44°35' E 037°54'0 0.0
2015-Feb-25 06:33N 44°35' E 037°54'0 0.0
2015-Feb-25 05:33N 44°35' E 037°54'0 0.1
2015-Feb-25 04:33N 44°35' E 037°54'0 0.1
2015-Feb-25 03:33N 44°35' E 037°54'0 0.0
2015-Feb-25 02:33N 44°35' E 037°54'0 0.0
2015-Feb-25 01:33N 44°35' E 037°54'0 0.0
2015-Feb-25 00:33N 44°35' E 037°54'0 0.1
2015-Feb-24 23:33N 44°35' E 037°54'0 0.0
2015-Feb-24 22:33N 44°35' E 037°54'0 0.0
2015-Feb-24 21:33N 44°35' E 037°54'0 0.1
2015-Feb-24 20:33N 44°35' E 037°54'0 0.0
2015-Feb-24 19:33N 44°35' E 037°54'0 0.0
2015-Feb-24 18:33N 44°35' E 037°54'0 0.0
2015-Feb-24 17:33N 44°35' E 037°54'0 0.0
2015-Feb-24 16:33N 44°35' E 037°54'0 0.0
2015-Feb-24 15:30N 44°35' E 037°54'0 0.0
2015-Feb-24 14:30N 44°35' E 037°54'0 0.0
2015-Feb-24 13:33N 44°35' E 037°54'0 0.0
2015-Feb-24 12:33N 44°35' E 037°54'0 0.0
2015-Feb-24 11:33N 44°35' E 037°54'0 0.1
2015-Feb-24 10:33N 44°35' E 037°54'0 0.0
2015-Feb-24 09:27N 44°35' E 037°54'0 0.1
2015-Feb-24 08:33N 44°35' E 037°54'0 0.0
2015-Feb-24 07:33N 44°35' E 037°54'0 0.1
2015-Feb-24 06:33N 44°35' E 037°54'0 0.1
2015-Feb-24 05:33N 44°35' E 037°54'0 0.1
2015-Feb-24 04:33N 44°35' E 037°54'0 0.0
2015-Feb-24 03:33N 44°35' E 037°54'0 0.0
2015-Feb-24 02:33N 44°35' E 037°54'0 0.1
2015-Feb-24 01:33N 44°35' E 037°54'0 0.1
2015-Feb-24 00:33N 44°35' E 037°54'0 0.2
2015-Feb-23 23:33N 44°35' E 037°55'0 0.1
2015-Feb-23 22:33N 44°34' E 037°55'0 0.2
2015-Feb-23 21:33N 44°35' E 037°55'0 0.0
2015-Feb-23 20:33N 44°35' E 037°55'0 0.1
2015-Feb-23 19:33N 44°35' E 037°55'0 0.1
2015-Feb-23 18:33N 44°35' E 037°55'2 1.5
2015-Feb-23 17:33N 44°34' E 037°52'7 6.5
2015-Feb-23 16:33N 44°37' E 037°44'0 0.1
2015-Feb-23 15:33N 44°37' E 037°44'1 0.8
2015-Feb-23 14:33N 44°37' E 037°43'6 5.5
2015-Feb-23 13:33N 44°33' E 037°37'8 7.6
2015-Feb-23 12:33N 44°26' E 037°33'7 7.5
2015-Feb-23 11:33N 44°22' E 037°24'8 7.8
2015-Feb-23 10:33N 44°19' E 037°14'8 7.9
2015-Feb-23 09:32N 44°15' E 037°04'118 8.8
2015-Feb-22 20:11N 43°27' E 034°35'  
Track history (hours):
 
Tides and Currents Weather Stations Pressure Air Temp Water Temp Dewpoint Dewpoint Depression Visibility Wind Speed Wind Dir Waves Ship Positions

Besiktas Bosphorus

Last reported at 2015-Mar-04 16:32 UTC. Time now 2015-Mar-04 16:48 UTC.
Position N 44°38' E 037°26'.

Length 274 m; draft 8.9 m.

Type: Tanker. MMSI: 271000817.

Date/timePositionNaut miles runAvg speedWind from/ knotsBaromVisibWave heightAir tempDewpointWater temp
2015-Mar-04 16:32N 44°38' E 037°26'2 1.7
2015-Mar-04 15:33N 44°37' E 037°24'1 1.2
2015-Mar-04 14:33N 44°37' E 037°22'2 1.2
2015-Mar-04 12:33N 44°40' E 037°23'3 3.1
2015-Mar-04 11:33N 44°37' E 037°25'9 9.5
2015-Mar-04 10:33N 44°35' E 037°39'2 2.0
2015-Mar-04 09:31N 44°37' E 037°40'0 0.0
2015-Mar-04 08:28N 44°37' E 037°40'0 0.0
2015-Mar-04 07:31N 44°37' E 037°40'0 0.0
2015-Mar-04 06:31N 44°37' E 037°40'0 0.0
2015-Mar-04 05:31N 44°37' E 037°40'0 0.0
2015-Mar-03 22:18N 44°37' E 037°40'1 1.2
2015-Mar-03 21:34N 44°37' E 037°41'2 2.3
2015-Mar-03 20:33N 44°35' E 037°39'5 5.4
2015-Mar-03 19:33N 44°33' E 037°46'6 5.8
2015-Mar-03 18:33N 44°35' E 037°54'0 0.0
2015-Mar-03 17:33N 44°35' E 037°54'0 0.1
2015-Mar-03 16:30N 44°35' E 037°54'0 0.0
2015-Mar-03 15:30N 44°35' E 037°54'0 0.0
2015-Mar-03 14:33N 44°35' E 037°54'0 0.0
2015-Mar-03 13:33N 44°35' E 037°55'0 0.0
2015-Mar-03 12:33N 44°35' E 037°55'0 0.0
2015-Mar-03 11:33N 44°35' E 037°55'0 0.0
2015-Mar-03 10:33N 44°35' E 037°54'0 0.0
2015-Mar-03 09:30N 44°35' E 037°54'0 0.0
2015-Mar-03 08:33N 44°35' E 037°54'0 0.1
2015-Mar-03 07:33N 44°35' E 037°54'0 0.0
2015-Mar-03 06:33N 44°35' E 037°54'0 0.0
2015-Mar-03 05:33N 44°35' E 037°54'0 0.0
2015-Mar-03 04:33N 44°35' E 037°54'0 0.1
2015-Mar-03 03:33N 44°35' E 037°54'0 0.1
2015-Mar-03 02:33N 44°35' E 037°54'0 0.1
2015-Mar-03 01:33N 44°35' E 037°54'0 0.0
2015-Mar-03 00:33N 44°35' E 037°54'0 0.1
2015-Mar-02 23:33N 44°35' E 037°54'0 0.0
2015-Mar-02 22:33N 44°35' E 037°54'0 0.1
2015-Mar-02 21:33N 44°35' E 037°54'0 0.1
2015-Mar-02 20:33N 44°35' E 037°54'0 0.1
2015-Mar-02 19:33N 44°35' E 037°54'0 0.0
2015-Mar-02 18:33N 44°35' E 037°54'0 0.1
2015-Mar-02 17:33N 44°35' E 037°55'0 0.0
2015-Mar-02 16:33N 44°35' E 037°55'0 0.0
2015-Mar-02 15:33N 44°35' E 037°55'0 0.0
2015-Mar-02 14:33N 44°35' E 037°55'0 0.0
2015-Mar-02 13:33N 44°35' E 037°55'0 0.0
2015-Mar-02 12:33N 44°35' E 037°55'0 0.2
2015-Mar-02 11:33N 44°34' E 037°55'0 0.1
2015-Mar-02 10:33N 44°34' E 037°54'0 0.1
2015-Mar-02 09:33N 44°34' E 037°54'0 0.0
2015-Mar-02 08:33N 44°34' E 037°54'0 0.1
2015-Mar-02 07:33N 44°34' E 037°54'0 0.1
2015-Mar-02 06:33N 44°34' E 037°55'0 0.0
2015-Mar-02 05:33N 44°34' E 037°55'0 0.0
2015-Mar-02 04:33N 44°34' E 037°55'0 0.0
2015-Mar-02 03:33N 44°34' E 037°55'0 0.0
2015-Mar-02 02:33N 44°34' E 037°55'0 0.0
2015-Mar-02 01:33N 44°34' E 037°55'0 0.1
2015-Mar-02 00:33N 44°34' E 037°55'0 0.0
2015-Mar-01 23:33N 44°34' E 037°55'0 0.0
2015-Mar-01 22:33N 44°35' E 037°55'0 0.0
2015-Mar-01 21:33N 44°35' E 037°55'0 0.1
2015-Mar-01 20:33N 44°34' E 037°55'0 0.0
2015-Mar-01 19:33N 44°34' E 037°55'0 0.1
2015-Mar-01 18:33N 44°34' E 037°55'0 0.0
2015-Mar-01 17:33N 44°34' E 037°54'0 0.0
2015-Mar-01 16:33N 44°34' E 037°54'0 0.1
2015-Mar-01 15:33N 44°34' E 037°55'0 0.0
2015-Mar-01 14:33N 44°34' E 037°55'0 0.0
2015-Mar-01 13:33N 44°34' E 037°55'0 0.2
2015-Mar-01 12:33N 44°34' E 037°54'0 0.2
2015-Mar-01 11:33N 44°35' E 037°54'0 0.1
2015-Mar-01 10:33N 44°35' E 037°54'0 0.0
2015-Mar-01 09:33N 44°35' E 037°54'0 0.0
2015-Mar-01 08:33N 44°35' E 037°54'0 0.0
2015-Mar-01 07:30N 44°35' E 037°54'0 0.0
2015-Mar-01 06:33N 44°35' E 037°54'0 0.0
2015-Mar-01 05:33N 44°35' E 037°54'0 0.1
2015-Mar-01 04:27N 44°35' E 037°54'0 0.0
2015-Mar-01 03:33N 44°35' E 037°55'0 0.1
2015-Mar-01 02:33N 44°35' E 037°54'0 0.0
2015-Mar-01 01:33N 44°35' E 037°54'0 0.0
2015-Mar-01 00:33N 44°35' E 037°54'0 0.0
2015-Feb-28 23:33N 44°35' E 037°54'0 0.1
2015-Feb-28 22:33N 44°35' E 037°55'0 0.1
2015-Feb-28 21:33N 44°35' E 037°54'0 0.0
2015-Feb-28 20:33N 44°35' E 037°54'0 0.1
2015-Feb-28 19:33N 44°35' E 037°54'0 0.0
2015-Feb-28 18:33N 44°35' E 037°54'0 0.1
2015-Feb-28 17:33N 44°35' E 037°54'0 0.0
2015-Feb-28 16:33N 44°35' E 037°54'0 0.0
2015-Feb-28 15:33N 44°35' E 037°54'0 0.0
2015-Feb-28 14:33N 44°35' E 037°54'0 0.0
2015-Feb-28 13:33N 44°35' E 037°54'0 0.0
2015-Feb-28 12:33N 44°35' E 037°54'0 0.0
2015-Feb-28 11:33N 44°35' E 037°54'0 0.1
2015-Feb-28 10:33N 44°35' E 037°54'0 0.0
2015-Feb-28 09:33N 44°35' E 037°54'0 0.1
2015-Feb-28 08:33N 44°35' E 037°54'0 0.0
2015-Feb-28 07:33N 44°35' E 037°54'0 0.2
2015-Feb-28 06:33N 44°34' E 037°54'0 0.1
2015-Feb-28 05:33N 44°34' E 037°54'0 0.1
2015-Feb-28 04:33N 44°34' E 037°55'0 0.0
2015-Feb-28 03:33N 44°34' E 037°55'0 0.0
2015-Feb-28 02:33N 44°34' E 037°55'0 0.0
2015-Feb-28 01:33N 44°34' E 037°55'0 0.1
2015-Feb-28 00:33N 44°34' E 037°55'0 0.0
2015-Feb-27 23:33N 44°34' E 037°55'0 0.0
2015-Feb-27 22:33N 44°34' E 037°55'0 0.2
2015-Feb-27 21:33N 44°34' E 037°54'0 0.0
2015-Feb-27 20:33N 44°34' E 037°54'0 0.1
2015-Feb-27 19:33N 44°34' E 037°54'0 0.0
2015-Feb-27 18:33N 44°34' E 037°54'0 0.1
2015-Feb-27 17:33N 44°35' E 037°54'0 0.0
2015-Feb-27 16:33N 44°35' E 037°54'0 0.1
2015-Feb-27 15:33N 44°34' E 037°54'0 0.1
2015-Feb-27 14:33N 44°34' E 037°55'0 0.0
2015-Feb-27 13:33N 44°34' E 037°55'0 0.1
2015-Feb-27 12:33N 44°35' E 037°55'0 0.0
2015-Feb-27 11:33N 44°35' E 037°55'0 0.1
2015-Feb-27 10:33N 44°34' E 037°55'0 0.0
2015-Feb-27 09:33N 44°34' E 037°55'0 0.0
2015-Feb-27 08:33N 44°34' E 037°55'0 0.0
2015-Feb-27 07:33N 44°34' E 037°55'0 0.1
2015-Feb-27 06:33N 44°34' E 037°54'0 0.2
2015-Feb-27 05:33N 44°35' E 037°54'0 0.1
2015-Feb-27 04:33N 44°35' E 037°54'0 0.2
2015-Feb-27 03:33N 44°34' E 037°54'0 0.0
2015-Feb-27 02:33N 44°34' E 037°54'0 0.2
2015-Feb-27 01:33N 44°35' E 037°54'0 0.0
2015-Feb-27 00:33N 44°35' E 037°54'0 0.0
2015-Feb-26 23:33N 44°35' E 037°54'0 0.0
2015-Feb-26 22:33N 44°35' E 037°54'0 0.0
2015-Feb-26 21:33N 44°35' E 037°54'0 0.2
2015-Feb-26 20:33N 44°35' E 037°55'0 0.1
2015-Feb-26 19:33N 44°35' E 037°55'0 0.2
2015-Feb-26 18:33N 44°35' E 037°54'0 0.0
2015-Feb-26 17:33N 44°35' E 037°54'0 0.0
2015-Feb-26 16:30N 44°35' E 037°54'0 0.0
2015-Feb-26 15:33N 44°35' E 037°54'0 0.0
2015-Feb-26 14:33N 44°35' E 037°54'0 0.0
2015-Feb-26 13:33N 44°35' E 037°54'0 0.0
2015-Feb-26 12:33N 44°35' E 037°54'0 0.0
2015-Feb-26 11:33N 44°35' E 037°54'0 0.0
2015-Feb-26 10:33N 44°35' E 037°54'0 0.0
2015-Feb-26 09:33N 44°35' E 037°54'0 0.0
2015-Feb-26 08:33N 44°35' E 037°54'0 0.0
2015-Feb-26 07:33N 44°35' E 037°54'0 0.0
2015-Feb-26 06:30N 44°35' E 037°54'0 0.1
2015-Feb-26 05:33N 44°35' E 037°54'0 0.0
2015-Feb-26 04:33N 44°35' E 037°54'0 0.0
2015-Feb-26 03:30N 44°35' E 037°54'0 0.0
2015-Feb-26 02:33N 44°35' E 037°54'0 0.0
2015-Feb-26 01:33N 44°35' E 037°54'0 0.0
2015-Feb-26 00:33N 44°35' E 037°54'0 0.0
2015-Feb-25 23:33N 44°35' E 037°54'0 0.0
2015-Feb-25 22:33N 44°35' E 037°54'0 0.0
2015-Feb-25 21:33N 44°35' E 037°54'0 0.0
2015-Feb-25 20:33N 44°35' E 037°54'0 0.1
2015-Feb-25 19:33N 44°35' E 037°54'0 0.1
2015-Feb-25 18:33N 44°35' E 037°54'0 0.1
2015-Feb-25 17:33N 44°35' E 037°54'0 0.0
2015-Feb-25 16:33N 44°35' E 037°54'0 0.0
2015-Feb-25 15:33N 44°35' E 037°54'0 0.1
2015-Feb-25 14:33N 44°35' E 037°54'0 0.0
2015-Feb-25 13:33N 44°35' E 037°54'0 0.0
2015-Feb-25 12:33N 44°35' E 037°54'0 0.0
2015-Feb-25 11:30N 44°35' E 037°54'0 0.0
2015-Feb-25 10:33N 44°35' E 037°54'0 0.0
2015-Feb-25 09:33N 44°35' E 037°54'0 0.0
2015-Feb-25 08:33N 44°35' E 037°54'0 0.0
2015-Feb-25 07:33N 44°35' E 037°54'0 0.0
2015-Feb-25 06:33N 44°35' E 037°54'0 0.0
2015-Feb-25 05:33N 44°35' E 037°54'0 0.1
2015-Feb-25 04:33N 44°35' E 037°54'0 0.1
2015-Feb-25 03:33N 44°35' E 037°54'0 0.0
2015-Feb-25 02:33N 44°35' E 037°54'0 0.0
2015-Feb-25 01:33N 44°35' E 037°54'0 0.0
2015-Feb-25 00:33N 44°35' E 037°54'0 0.1
2015-Feb-24 23:33N 44°35' E 037°54'0 0.0
2015-Feb-24 22:33N 44°35' E 037°54'0 0.0
2015-Feb-24 21:33N 44°35' E 037°54'0 0.1
2015-Feb-24 20:33N 44°35' E 037°54'0 0.0
2015-Feb-24 19:33N 44°35' E 037°54'0 0.0
2015-Feb-24 18:33N 44°35' E 037°54'0 0.0
2015-Feb-24 17:33N 44°35' E 037°54'0 0.0
2015-Feb-24 16:33N 44°35' E 037°54'0 0.0
2015-Feb-24 15:30N 44°35' E 037°54'0 0.0
2015-Feb-24 14:30N 44°35' E 037°54'0 0.0
2015-Feb-24 13:33N 44°35' E 037°54'0 0.0
2015-Feb-24 12:33N 44°35' E 037°54'0 0.0
2015-Feb-24 11:33N 44°35' E 037°54'0 0.1
2015-Feb-24 10:33N 44°35' E 037°54'0 0.0
2015-Feb-24 09:27N 44°35' E 037°54'0 0.1
2015-Feb-24 08:33N 44°35' E 037°54'0 0.0
2015-Feb-24 07:33N 44°35' E 037°54'0 0.1
2015-Feb-24 06:33N 44°35' E 037°54'0 0.1
2015-Feb-24 05:33N 44°35' E 037°54'0 0.1
2015-Feb-24 04:33N 44°35' E 037°54'0 0.0
2015-Feb-24 03:33N 44°35' E 037°54'0 0.0
2015-Feb-24 02:33N 44°35' E 037°54'0 0.1
2015-Feb-24 01:33N 44°35' E 037°54'0 0.1
2015-Feb-24 00:33N 44°35' E 037°54'0 0.2
2015-Feb-23 23:33N 44°35' E 037°55'0 0.1
2015-Feb-23 22:33N 44°34' E 037°55'0 0.2
2015-Feb-23 21:33N 44°35' E 037°55'0 0.0
2015-Feb-23 20:33N 44°35' E 037°55'0 0.1
2015-Feb-23 19:33N 44°35' E 037°55'0 0.1
2015-Feb-23 18:33N 44°35' E 037°55'2 1.5
2015-Feb-23 17:33N 44°34' E 037°52'7 6.5
2015-Feb-23 16:33N 44°37' E 037°44'0 0.1
2015-Feb-23 15:33N 44°37' E 037°44'1 0.8
2015-Feb-23 14:33N 44°37' E 037°43'6 5.5
2015-Feb-23 13:33N 44°33' E 037°37'8 7.6
2015-Feb-23 12:33N 44°26' E 037°33'7 7.5
2015-Feb-23 11:33N 44°22' E 037°24'8 7.8
2015-Feb-23 10:33N 44°19' E 037°14'8 7.9
2015-Feb-23 09:32N 44°15' E 037°04'118 8.8
2015-Feb-22 20:11N 43°27' E 034°35'  

Dump ship's entire track history